Dobbins Air Reserve Base Airport
KMGE : now visible

Aeroporto :











RITROVATECI SU...

 
LOGIN :

Iscrizione | Disclaimer

   EN    FR    IT 

 









Sommario :    VFR   VFR Marginale   IFR   IFR Intensivo   IFR Molto Intensivo
Visibilità : 
Base nubi : 
>= 8 km
>= 3000ft
5 / 8 km
1000 / 3000 ft
1500m / 5 km
500 / 1000 ft
800 / 1500m
200 / 500 ft
< 800m
< 200 ft
Simboli :   Temporali  Nebbia  Neve Forte  Precipitazioni Forti  Vento > 20 kt






- Altitudine del aeroporto : 1068 ft


KMGE - Dobbins Air Reserve Base

ULTIMO METAR :
  • 151356Z 00000KT 7SM BR FEW019 07/06 A3012 RMK AO2A SLP206 T00650059 $

METARs OBSOLETI :
  • 151256Z 00000KT 7SM FEW022 BKN150 04/03 A3009 RMK AO2A SLP196 T00400034 $
  • 151208Z 24001KT 7SM SCT022 OVC150 04/03 A3007 RMK AO2A $
  • 151156Z 27002KT 7SM BKN022 OVC150 05/04 A3006 RMK AO2A SLP185 T00460040 10059 20034 52020 $

TAF TAF KMGE
Valido dal 15 a 14 ore il 16 a 20 ore UTC


151405Z 1514/1620 24005KT 9999 BKN020 BKN150 QNH3010INS
BECMG 1518/1519 21005KT 9999 BKN050 QNH3008INS
BECMG 1609/1610 17005KT 9999 SCT010 OVC020 QNH3008INS
BECMG 1614/1615 15005KT 9999 OVC020 QNH3002INS
BECMG 1617/1618 15008KT 9999 BKN035 QNH3000INS TX14/1520Z TN07/1612Z



MetMap, La meteo Aeronautica in un colpo d'occhio ! - Copyright ORBIFLY Dicembre 2007 - Disclaimer

ORBIFLY MET'MAP TEAM :

Programmazione e sviluppo : Alexandra Zaïnal
Concezione : Baudouin d'Aumeries
Aiuto per la programmazione : Marc-Olivier Méhu
Supporto tecnico e logistico : Manuel Goepfert
Aiuto per la traduzione : Arnaldo La Scala

Contatto : metmap@orbifly.com




FONTI E CREDITI :

   NOAA       Earth
Advisory